sensor_id;sensor_type;location;lat;lon;timestamp;P1;durP1;ratioP1;P2;durP2;ratioP2
12968;SDS011;6549;53.128;8.182;2023-08-21T00:00:33;4.93;;;2.47;;
12968;SDS011;6549;53.128;8.182;2023-08-21T00:03:34;6.35;;;2.83;;
12968;SDS011;6549;53.128;8.182;2023-08-21T00:06:34;6.25;;;3.05;;
12968;SDS011;6549;53.128;8.182;2023-08-21T00:09:34;4.78;;;2.88;;
12968;SDS011;6549;53.128;8.182;2023-08-21T00:12:35;2.92;;;2.47;;
12968;SDS011;6549;53.128;8.182;2023-08-21T00:15:37;4.55;;;2.42;;
12968;SDS011;6549;53.128;8.182;2023-08-21T00:18:38;5.18;;;2.78;;
12968;SDS011;6549;53.128;8.182;2023-08-21T00:21:39;7.90;;;3.78;;
12968;SDS011;6549;53.128;8.182;2023-08-21T00:24:39;6.43;;;3.08;;
12968;SDS011;6549;53.128;8.182;2023-08-21T00:27:39;6.78;;;3.28;;
12968;SDS011;6549;53.128;8.182;2023-08-21T00:30:39;3.67;;;2.80;;
12968;SDS011;6549;53.128;8.182;2023-08-21T00:33:40;5.90;;;3.25;;
12968;SDS011;6549;53.128;8.182;2023-08-21T00:36:40;4.20;;;2.35;;
12968;SDS011;6549;53.128;8.182;2023-08-21T00:39:40;3.90;;;2.50;;
12968;SDS011;6549;53.128;8.182;2023-08-21T00:42:41;5.15;;;3.00;;
12968;SDS011;6549;53.128;8.182;2023-08-21T00:45:42;6.10;;;2.83;;
12968;SDS011;6549;53.128;8.182;2023-08-21T00:48:45;5.30;;;2.97;;
12968;SDS011;6549;53.128;8.182;2023-08-21T00:51:45;6.70;;;3.08;;
12968;SDS011;6549;53.128;8.182;2023-08-21T00:54:47;4.63;;;3.10;;
12968;SDS011;6549;53.128;8.182;2023-08-21T00:57:47;5.85;;;4.03;;
12968;SDS011;6549;53.128;8.182;2023-08-21T01:00:49;3.78;;;2.92;;
12968;SDS011;6549;53.128;8.182;2023-08-21T01:03:51;3.75;;;2.90;;
12968;SDS011;6549;53.128;8.182;2023-08-21T01:06:52;3.80;;;2.60;;
12968;SDS011;6549;53.128;8.182;2023-08-21T01:10:01;3.92;;;2.75;;
12968;SDS011;6549;53.128;8.182;2023-08-21T01:13:15;3.78;;;2.55;;
12968;SDS011;6549;53.128;8.182;2023-08-21T01:16:23;3.08;;;2.50;;
12968;SDS011;6549;53.128;8.182;2023-08-21T01:19:40;4.63;;;3.25;;
12968;SDS011;6549;53.128;8.182;2023-08-21T01:22:42;4.43;;;2.63;;
12968;SDS011;6549;53.128;8.182;2023-08-21T01:25:46;3.50;;;2.70;;
12968;SDS011;6549;53.128;8.182;2023-08-21T01:28:46;3.92;;;2.40;;
12968;SDS011;6549;53.128;8.182;2023-08-21T01:31:48;4.38;;;2.92;;
12968;SDS011;6549;53.128;8.182;2023-08-21T01:34:54;6.32;;;3.90;;
12968;SDS011;6549;53.128;8.182;2023-08-21T01:37:55;11.20;;;6.05;;
12968;SDS011;6549;53.128;8.182;2023-08-21T01:40:56;7.97;;;4.47;;
12968;SDS011;6549;53.128;8.182;2023-08-21T01:43:56;10.18;;;6.60;;
12968;SDS011;6549;53.128;8.182;2023-08-21T01:46:57;8.98;;;5.43;;
12968;SDS011;6549;53.128;8.182;2023-08-21T01:49:57;7.55;;;4.50;;
12968;SDS011;6549;53.128;8.182;2023-08-21T01:52:57;6.50;;;4.05;;
12968;SDS011;6549;53.128;8.182;2023-08-21T01:55:58;6.65;;;4.18;;
12968;SDS011;6549;53.128;8.182;2023-08-21T01:58:58;6.43;;;3.95;;
12968;SDS011;6549;53.128;8.182;2023-08-21T02:01:58;6.75;;;5.05;;
12968;SDS011;6549;53.128;8.182;2023-08-21T02:04:59;11.88;;;5.90;;
12968;SDS011;6549;53.128;8.182;2023-08-21T02:07:59;10.65;;;7.18;;
12968;SDS011;6549;53.128;8.182;2023-08-21T02:10:59;9.40;;;6.15;;
12968;SDS011;6549;53.128;8.182;2023-08-21T02:14:00;17.70;;;12.70;;
12968;SDS011;6549;53.128;8.182;2023-08-21T02:17:00;12.50;;;8.40;;
12968;SDS011;6549;53.128;8.182;2023-08-21T02:20:02;14.20;;;9.02;;
12968;SDS011;6549;53.128;8.182;2023-08-21T02:23:03;16.70;;;10.88;;
12968;SDS011;6549;53.128;8.182;2023-08-21T02:26:03;10.88;;;7.53;;
12968;SDS011;6549;53.128;8.182;2023-08-21T02:29:03;11.93;;;7.45;;
12968;SDS011;6549;53.128;8.182;2023-08-21T02:32:04;9.25;;;6.80;;
12968;SDS011;6549;53.128;8.182;2023-08-21T02:35:04;8.93;;;5.72;;
12968;SDS011;6549;53.128;8.182;2023-08-21T02:38:05;8.10;;;5.60;;
12968;SDS011;6549;53.128;8.182;2023-08-21T02:41:06;8.02;;;5.78;;
12968;SDS011;6549;53.128;8.182;2023-08-21T02:44:06;8.80;;;5.82;;
12968;SDS011;6549;53.128;8.182;2023-08-21T02:47:06;6.43;;;4.72;;
12968;SDS011;6549;53.128;8.182;2023-08-21T02:50:07;6.18;;;4.20;;
12968;SDS011;6549;53.128;8.182;2023-08-21T02:53:08;6.60;;;4.63;;
12968;SDS011;6549;53.128;8.182;2023-08-21T02:56:09;7.03;;;4.97;;
12968;SDS011;6549;53.128;8.182;2023-08-21T02:59:09;8.73;;;4.72;;
12968;SDS011;6549;53.128;8.182;2023-08-21T03:02:09;8.35;;;5.10;;
12968;SDS011;6549;53.128;8.182;2023-08-21T03:05:10;8.02;;;4.90;;
12968;SDS011;6549;53.128;8.182;2023-08-21T03:08:11;5.65;;;4.20;;
12968;SDS011;6549;53.128;8.182;2023-08-21T03:11:11;6.55;;;4.32;;
12968;SDS011;6549;53.128;8.182;2023-08-21T03:14:12;5.55;;;3.42;;
12968;SDS011;6549;53.128;8.182;2023-08-21T03:17:12;5.68;;;3.67;;
12968;SDS011;6549;53.128;8.182;2023-08-21T03:20:12;5.95;;;4.00;;
12968;SDS011;6549;53.128;8.182;2023-08-21T03:23:13;5.05;;;3.28;;
12968;SDS011;6549;53.128;8.182;2023-08-21T03:26:14;6.55;;;4.32;;
12968;SDS011;6549;53.128;8.182;2023-08-21T03:29:14;5.15;;;3.60;;
12968;SDS011;6549;53.128;8.182;2023-08-21T03:32:15;10.00;;;7.07;;
12968;SDS011;6549;53.128;8.182;2023-08-21T03:35:16;8.13;;;6.53;;
12968;SDS011;6549;53.128;8.182;2023-08-21T03:38:16;7.38;;;5.38;;
12968;SDS011;6549;53.128;8.182;2023-08-21T03:41:17;9.95;;;6.90;;
12968;SDS011;6549;53.128;8.182;2023-08-21T03:44:17;5.45;;;4.50;;
12968;SDS011;6549;53.128;8.182;2023-08-21T03:47:18;5.03;;;3.75;;
12968;SDS011;6549;53.128;8.182;2023-08-21T03:50:18;6.15;;;4.28;;
12968;SDS011;6549;53.128;8.182;2023-08-21T03:53:18;7.68;;;4.30;;
12968;SDS011;6549;53.128;8.182;2023-08-21T03:56:19;4.47;;;3.50;;
12968;SDS011;6549;53.128;8.182;2023-08-21T03:59:19;3.13;;;2.58;;
12968;SDS011;6549;53.128;8.182;2023-08-21T04:02:19;2.25;;;2.00;;
12968;SDS011;6549;53.128;8.182;2023-08-21T04:05:20;2.75;;;1.92;;
12968;SDS011;6549;53.128;8.182;2023-08-21T04:08:20;2.40;;;1.83;;
12968;SDS011;6549;53.128;8.182;2023-08-21T04:11:20;2.30;;;2.03;;
12968;SDS011;6549;53.128;8.182;2023-08-21T04:14:21;2.60;;;2.15;;
12968;SDS011;6549;53.128;8.182;2023-08-21T04:17:22;3.25;;;2.40;;
12968;SDS011;6549;53.128;8.182;2023-08-21T04:20:22;4.05;;;2.85;;
12968;SDS011;6549;53.128;8.182;2023-08-21T04:23:23;4.30;;;2.97;;
12968;SDS011;6549;53.128;8.182;2023-08-21T04:26:23;4.78;;;3.10;;
12968;SDS011;6549;53.128;8.182;2023-08-21T04:29:23;3.63;;;2.80;;
12968;SDS011;6549;53.128;8.182;2023-08-21T04:32:25;4.45;;;3.03;;
12968;SDS011;6549;53.128;8.182;2023-08-21T04:35:25;4.47;;;3.50;;
12968;SDS011;6549;53.128;8.182;2023-08-21T04:38:26;4.25;;;3.15;;
12968;SDS011;6549;53.128;8.182;2023-08-21T04:41:26;3.70;;;2.40;;
12968;SDS011;6549;53.128;8.182;2023-08-21T04:44:26;3.08;;;2.05;;
12968;SDS011;6549;53.128;8.182;2023-08-21T04:47:27;3.53;;;2.80;;
12968;SDS011;6549;53.128;8.182;2023-08-21T04:50:27;4.45;;;3.55;;
12968;SDS011;6549;53.128;8.182;2023-08-21T04:53:27;4.65;;;3.53;;
12968;SDS011;6549;53.128;8.182;2023-08-21T04:56:29;4.85;;;3.22;;
12968;SDS011;6549;53.128;8.182;2023-08-21T04:59:29;4.05;;;2.90;;
12968;SDS011;6549;53.128;8.182;2023-08-21T05:02:29;5.07;;;3.33;;
12968;SDS011;6549;53.128;8.182;2023-08-21T05:05:30;5.07;;;3.90;;
12968;SDS011;6549;53.128;8.182;2023-08-21T05:08:30;6.07;;;4.00;;
12968;SDS011;6549;53.128;8.182;2023-08-21T05:11:30;9.73;;;6.47;;
12968;SDS011;6549;53.128;8.182;2023-08-21T05:14:31;10.80;;;8.07;;
12968;SDS011;6549;53.128;8.182;2023-08-21T05:17:31;8.57;;;6.85;;
12968;SDS011;6549;53.128;8.182;2023-08-21T05:20:31;9.18;;;6.40;;
12968;SDS011;6549;53.128;8.182;2023-08-21T05:23:31;8.30;;;5.60;;
12968;SDS011;6549;53.128;8.182;2023-08-21T05:26:32;6.70;;;4.70;;
12968;SDS011;6549;53.128;8.182;2023-08-21T05:29:32;5.65;;;4.25;;
12968;SDS011;6549;53.128;8.182;2023-08-21T05:32:32;5.18;;;3.75;;
12968;SDS011;6549;53.128;8.182;2023-08-21T05:35:33;11.15;;;8.43;;
12968;SDS011;6549;53.128;8.182;2023-08-21T05:41:35;8.70;;;5.57;;
12968;SDS011;6549;53.128;8.182;2023-08-21T05:44:36;11.52;;;9.30;;
12968;SDS011;6549;53.128;8.182;2023-08-21T05:47:37;8.45;;;6.50;;
12968;SDS011;6549;53.128;8.182;2023-08-21T05:50:37;8.77;;;7.85;;
12968;SDS011;6549;53.128;8.182;2023-08-21T05:53:38;6.88;;;5.80;;
12968;SDS011;6549;53.128;8.182;2023-08-21T05:56:38;8.23;;;5.88;;
12968;SDS011;6549;53.128;8.182;2023-08-21T05:59:42;8.35;;;6.43;;
12968;SDS011;6549;53.128;8.182;2023-08-21T06:02:46;9.98;;;7.07;;
12968;SDS011;6549;53.128;8.182;2023-08-21T06:05:47;7.97;;;5.35;;
12968;SDS011;6549;53.128;8.182;2023-08-21T06:08:47;13.38;;;10.23;;
12968;SDS011;6549;53.128;8.182;2023-08-21T06:11:48;11.52;;;7.15;;
12968;SDS011;6549;53.128;8.182;2023-08-21T06:14:48;9.90;;;7.53;;
12968;SDS011;6549;53.128;8.182;2023-08-21T06:17:49;10.60;;;7.82;;
12968;SDS011;6549;53.128;8.182;2023-08-21T06:20:49;14.55;;;11.70;;
12968;SDS011;6549;53.128;8.182;2023-08-21T06:23:53;13.90;;;9.88;;
12968;SDS011;6549;53.128;8.182;2023-08-21T06:26:54;10.30;;;7.15;;
12968;SDS011;6549;53.128;8.182;2023-08-21T06:29:54;10.02;;;7.35;;
12968;SDS011;6549;53.128;8.182;2023-08-21T06:32:55;9.88;;;7.40;;
12968;SDS011;6549;53.128;8.182;2023-08-21T06:35:55;12.30;;;8.73;;
12968;SDS011;6549;53.128;8.182;2023-08-21T06:38:56;11.10;;;8.43;;
12968;SDS011;6549;53.128;8.182;2023-08-21T06:41:56;10.23;;;8.00;;
12968;SDS011;6549;53.128;8.182;2023-08-21T06:44:57;7.50;;;5.90;;
12968;SDS011;6549;53.128;8.182;2023-08-21T06:47:57;14.02;;;9.10;;
12968;SDS011;6549;53.128;8.182;2023-08-21T06:50:58;13.48;;;7.03;;
12968;SDS011;6549;53.128;8.182;2023-08-21T06:53:58;9.70;;;6.88;;
12968;SDS011;6549;53.128;8.182;2023-08-21T06:56:58;10.05;;;7.03;;
12968;SDS011;6549;53.128;8.182;2023-08-21T06:59:59;6.88;;;5.25;;
12968;SDS011;6549;53.128;8.182;2023-08-21T07:02:59;8.63;;;5.32;;
12968;SDS011;6549;53.128;8.182;2023-08-21T07:06:00;7.38;;;5.60;;
12968;SDS011;6549;53.128;8.182;2023-08-21T07:09:01;5.57;;;4.50;;
12968;SDS011;6549;53.128;8.182;2023-08-21T07:12:01;5.57;;;4.05;;
12968;SDS011;6549;53.128;8.182;2023-08-21T07:15:03;6.45;;;5.03;;
12968;SDS011;6549;53.128;8.182;2023-08-21T07:18:03;4.93;;;3.50;;
12968;SDS011;6549;53.128;8.182;2023-08-21T07:21:04;4.50;;;3.40;;
12968;SDS011;6549;53.128;8.182;2023-08-21T07:24:05;6.88;;;5.10;;
12968;SDS011;6549;53.128;8.182;2023-08-21T07:27:05;6.53;;;5.07;;
12968;SDS011;6549;53.128;8.182;2023-08-21T07:30:06;7.05;;;4.53;;
12968;SDS011;6549;53.128;8.182;2023-08-21T07:33:07;8.07;;;4.30;;
12968;SDS011;6549;53.128;8.182;2023-08-21T07:36:07;6.45;;;3.30;;
12968;SDS011;6549;53.128;8.182;2023-08-21T07:39:07;7.60;;;4.00;;
12968;SDS011;6549;53.128;8.182;2023-08-21T07:42:10;6.30;;;3.58;;
12968;SDS011;6549;53.128;8.182;2023-08-21T07:45:11;6.55;;;3.22;;
12968;SDS011;6549;53.128;8.182;2023-08-21T07:48:12;8.23;;;3.40;;
12968;SDS011;6549;53.128;8.182;2023-08-21T07:51:12;9.65;;;3.38;;
12968;SDS011;6549;53.128;8.182;2023-08-21T07:54:13;5.97;;;2.60;;
12968;SDS011;6549;53.128;8.182;2023-08-21T07:57:13;5.85;;;2.67;;
12968;SDS011;6549;53.128;8.182;2023-08-21T08:00:13;7.45;;;2.35;;
12968;SDS011;6549;53.128;8.182;2023-08-21T08:03:14;6.60;;;2.10;;
12968;SDS011;6549;53.128;8.182;2023-08-21T08:06:14;6.22;;;2.22;;
12968;SDS011;6549;53.128;8.182;2023-08-21T08:09:15;3.25;;;1.70;;
12968;SDS011;6549;53.128;8.182;2023-08-21T08:12:15;7.60;;;2.17;;
12968;SDS011;6549;53.128;8.182;2023-08-21T08:15:15;5.18;;;1.63;;
12968;SDS011;6549;53.128;8.182;2023-08-21T08:18:16;4.90;;;1.40;;
12968;SDS011;6549;53.128;8.182;2023-08-21T08:21:16;3.03;;;1.25;;
12968;SDS011;6549;53.128;8.182;2023-08-21T08:27:17;5.50;;;1.20;;
12968;SDS011;6549;53.128;8.182;2023-08-21T08:30:18;5.38;;;1.40;;
12968;SDS011;6549;53.128;8.182;2023-08-21T08:33:18;4.22;;;1.40;;
12968;SDS011;6549;53.128;8.182;2023-08-21T08:36:18;8.10;;;1.58;;
12968;SDS011;6549;53.128;8.182;2023-08-21T08:39:19;3.30;;;1.25;;
12968;SDS011;6549;53.128;8.182;2023-08-21T08:42:20;3.63;;;1.42;;
12968;SDS011;6549;53.128;8.182;2023-08-21T08:45:23;2.47;;;1.13;;
12968;SDS011;6549;53.128;8.182;2023-08-21T08:48:32;4.38;;;1.30;;
12968;SDS011;6549;53.128;8.182;2023-08-21T08:51:33;3.47;;;1.20;;
12968;SDS011;6549;53.128;8.182;2023-08-21T08:54:34;3.20;;;1.45;;
12968;SDS011;6549;53.128;8.182;2023-08-21T08:57:37;4.70;;;1.40;;
12968;SDS011;6549;53.128;8.182;2023-08-21T09:00:38;5.78;;;1.27;;
12968;SDS011;6549;53.128;8.182;2023-08-21T09:03:38;4.85;;;1.45;;
12968;SDS011;6549;53.128;8.182;2023-08-21T09:06:38;3.65;;;1.20;;
12968;SDS011;6549;53.128;8.182;2023-08-21T09:09:39;5.72;;;3.47;;
12968;SDS011;6549;53.128;8.182;2023-08-21T09:12:40;5.23;;;3.13;;
12968;SDS011;6549;53.128;8.182;2023-08-21T09:15:41;8.13;;;2.00;;
12968;SDS011;6549;53.128;8.182;2023-08-21T09:18:54;6.60;;;2.97;;
12968;SDS011;6549;53.128;8.182;2023-08-21T09:21:56;1.45;;;1.00;;
12968;SDS011;6549;53.128;8.182;2023-08-21T09:25:01;5.47;;;1.45;;
12968;SDS011;6549;53.128;8.182;2023-08-21T09:28:07;4.30;;;1.38;;
12968;SDS011;6549;53.128;8.182;2023-08-21T09:31:08;2.70;;;1.00;;
12968;SDS011;6549;53.128;8.182;2023-08-21T09:34:09;4.63;;;1.10;;
12968;SDS011;6549;53.128;8.182;2023-08-21T09:37:09;4.18;;;1.35;;
12968;SDS011;6549;53.128;8.182;2023-08-21T09:40:10;3.85;;;1.33;;
12968;SDS011;6549;53.128;8.182;2023-08-21T09:43:11;2.95;;;1.17;;
12968;SDS011;6549;53.128;8.182;2023-08-21T09:46:15;4.10;;;1.33;;
12968;SDS011;6549;53.128;8.182;2023-08-21T09:49:16;3.75;;;1.08;;
12968;SDS011;6549;53.128;8.182;2023-08-21T09:52:17;5.53;;;1.20;;
12968;SDS011;6549;53.128;8.182;2023-08-21T09:55:17;2.60;;;1.00;;
12968;SDS011;6549;53.128;8.182;2023-08-21T09:58:18;3.97;;;1.70;;
12968;SDS011;6549;53.128;8.182;2023-08-21T10:01:19;3.13;;;1.10;;
12968;SDS011;6549;53.128;8.182;2023-08-21T10:04:21;2.50;;;1.02;;
12968;SDS011;6549;53.128;8.182;2023-08-21T10:07:24;2.30;;;0.93;;
12968;SDS011;6549;53.128;8.182;2023-08-21T10:10:28;2.92;;;1.27;;
12968;SDS011;6549;53.128;8.182;2023-08-21T10:13:31;3.75;;;1.35;;
12968;SDS011;6549;53.128;8.182;2023-08-21T10:16:34;3.38;;;1.40;;
12968;SDS011;6549;53.128;8.182;2023-08-21T10:19:34;2.65;;;1.10;;
12968;SDS011;6549;53.128;8.182;2023-08-21T10:22:37;5.28;;;2.15;;
12968;SDS011;6549;53.128;8.182;2023-08-21T10:25:47;4.60;;;2.10;;
12968;SDS011;6549;53.128;8.182;2023-08-21T10:28:52;5.18;;;3.17;;
12968;SDS011;6549;53.128;8.182;2023-08-21T10:32:02;3.07;;;1.17;;
12968;SDS011;6549;53.128;8.182;2023-08-21T10:35:04;2.78;;;1.20;;
12968;SDS011;6549;53.128;8.182;2023-08-21T10:38:14;2.65;;;1.00;;
12968;SDS011;6549;53.128;8.182;2023-08-21T10:41:16;1.15;;;0.98;;
12968;SDS011;6549;53.128;8.182;2023-08-21T10:47:42;1.90;;;1.08;;
12968;SDS011;6549;53.128;8.182;2023-08-21T10:50:42;3.78;;;1.10;;
12968;SDS011;6549;53.128;8.182;2023-08-21T10:53:43;1.52;;;1.13;;
12968;SDS011;6549;53.128;8.182;2023-08-21T10:56:43;2.00;;;1.20;;
12968;SDS011;6549;53.128;8.182;2023-08-21T11:00:05;2.47;;;0.90;;
12968;SDS011;6549;53.128;8.182;2023-08-21T11:03:11;2.45;;;1.00;;
12968;SDS011;6549;53.128;8.182;2023-08-21T11:06:11;1.88;;;0.80;;
12968;SDS011;6549;53.128;8.182;2023-08-21T11:09:12;1.85;;;1.05;;
12968;SDS011;6549;53.128;8.182;2023-08-21T11:12:14;1.80;;;1.00;;
12968;SDS011;6549;53.128;8.182;2023-08-21T11:15:16;2.08;;;0.90;;
12968;SDS011;6549;53.128;8.182;2023-08-21T11:18:17;2.70;;;1.33;;
12968;SDS011;6549;53.128;8.182;2023-08-21T11:21:19;3.63;;;1.15;;
12968;SDS011;6549;53.128;8.182;2023-08-21T11:24:22;2.38;;;1.17;;
12968;SDS011;6549;53.128;8.182;2023-08-21T11:27:23;2.97;;;1.05;;
12968;SDS011;6549;53.128;8.182;2023-08-21T11:30:23;4.85;;;1.27;;
12968;SDS011;6549;53.128;8.182;2023-08-21T11:33:25;2.58;;;1.00;;
12968;SDS011;6549;53.128;8.182;2023-08-21T11:36:26;1.67;;;0.90;;
12968;SDS011;6549;53.128;8.182;2023-08-21T11:39:26;3.90;;;1.30;;
12968;SDS011;6549;53.128;8.182;2023-08-21T11:42:30;2.28;;;1.17;;
12968;SDS011;6549;53.128;8.182;2023-08-21T11:45:32;2.55;;;1.05;;
12968;SDS011;6549;53.128;8.182;2023-08-21T11:48:32;3.20;;;1.38;;
12968;SDS011;6549;53.128;8.182;2023-08-21T11:51:37;2.07;;;1.10;;
12968;SDS011;6549;53.128;8.182;2023-08-21T11:54:39;2.80;;;1.30;;
12968;SDS011;6549;53.128;8.182;2023-08-21T11:57:50;4.50;;;1.10;;
12968;SDS011;6549;53.128;8.182;2023-08-21T12:00:52;3.30;;;1.27;;
12968;SDS011;6549;53.128;8.182;2023-08-21T12:03:52;3.10;;;1.10;;
12968;SDS011;6549;53.128;8.182;2023-08-21T12:06:56;2.10;;;1.05;;
12968;SDS011;6549;53.128;8.182;2023-08-21T12:09:56;2.33;;;1.30;;
12968;SDS011;6549;53.128;8.182;2023-08-21T12:12:57;2.17;;;1.13;;
12968;SDS011;6549;53.128;8.182;2023-08-21T12:15:57;3.93;;;1.13;;
12968;SDS011;6549;53.128;8.182;2023-08-21T12:18:57;2.33;;;1.27;;
12968;SDS011;6549;53.128;8.182;2023-08-21T12:21:58;1.90;;;1.10;;
12968;SDS011;6549;53.128;8.182;2023-08-21T12:24:58;2.47;;;1.10;;
12968;SDS011;6549;53.128;8.182;2023-08-21T12:27:59;4.43;;;1.13;;
12968;SDS011;6549;53.128;8.182;2023-08-21T12:30:59;3.03;;;1.10;;
12968;SDS011;6549;53.128;8.182;2023-08-21T12:33:59;2.17;;;1.02;;
12968;SDS011;6549;53.128;8.182;2023-08-21T12:37:00;2.42;;;1.20;;
12968;SDS011;6549;53.128;8.182;2023-08-21T12:40:00;1.97;;;1.13;;
12968;SDS011;6549;53.128;8.182;2023-08-21T12:43:00;2.58;;;1.30;;
12968;SDS011;6549;53.128;8.182;2023-08-21T12:46:01;2.97;;;1.35;;
12968;SDS011;6549;53.128;8.182;2023-08-21T12:49:02;2.47;;;1.20;;
12968;SDS011;6549;53.128;8.182;2023-08-21T12:52:02;3.37;;;1.40;;
12968;SDS011;6549;53.128;8.182;2023-08-21T12:55:05;1.83;;;1.30;;
12968;SDS011;6549;53.128;8.182;2023-08-21T12:58:06;2.47;;;1.20;;
12968;SDS011;6549;53.128;8.182;2023-08-21T13:01:06;2.40;;;1.10;;
12968;SDS011;6549;53.128;8.182;2023-08-21T13:04:07;2.93;;;1.03;;
12968;SDS011;6549;53.128;8.182;2023-08-21T13:07:07;5.83;;;1.43;;
12968;SDS011;6549;53.128;8.182;2023-08-21T13:10:07;3.17;;;1.27;;
12968;SDS011;6549;53.128;8.182;2023-08-21T13:13:08;2.03;;;1.00;;
12968;SDS011;6549;53.128;8.182;2023-08-21T13:16:08;1.67;;;1.02;;
12968;SDS011;6549;53.128;8.182;2023-08-21T13:19:09;3.23;;;1.30;;
12968;SDS011;6549;53.128;8.182;2023-08-21T13:22:09;1.87;;;1.20;;
12968;SDS011;6549;53.128;8.182;2023-08-21T13:25:09;3.13;;;1.33;;
12968;SDS011;6549;53.128;8.182;2023-08-21T13:28:10;2.00;;;1.30;;
12968;SDS011;6549;53.128;8.182;2023-08-21T13:31:11;2.67;;;1.20;;
12968;SDS011;6549;53.128;8.182;2023-08-21T13:34:11;1.47;;;0.90;;
12968;SDS011;6549;53.128;8.182;2023-08-21T13:37:12;4.50;;;1.30;;
12968;SDS011;6549;53.128;8.182;2023-08-21T13:40:12;3.33;;;1.30;;
12968;SDS011;6549;53.128;8.182;2023-08-21T13:43:16;1.85;;;1.00;;
12968;SDS011;6549;53.128;8.182;2023-08-21T13:46:16;2.97;;;1.30;;
12968;SDS011;6549;53.128;8.182;2023-08-21T13:49:17;3.57;;;1.17;;
12968;SDS011;6549;53.128;8.182;2023-08-21T13:52:17;2.47;;;0.97;;
12968;SDS011;6549;53.128;8.182;2023-08-21T13:55:17;2.80;;;1.20;;
12968;SDS011;6549;53.128;8.182;2023-08-21T13:58:18;1.60;;;1.00;;
12968;SDS011;6549;53.128;8.182;2023-08-21T14:01:18;2.63;;;1.00;;
12968;SDS011;6549;53.128;8.182;2023-08-21T14:04:18;2.77;;;1.03;;
12968;SDS011;6549;53.128;8.182;2023-08-21T14:07:18;1.77;;;1.00;;
12968;SDS011;6549;53.128;8.182;2023-08-21T14:10:19;1.87;;;1.00;;
12968;SDS011;6549;53.128;8.182;2023-08-21T14:13:19;4.30;;;1.20;;
12968;SDS011;6549;53.128;8.182;2023-08-21T14:16:19;1.93;;;1.10;;
12968;SDS011;6549;53.128;8.182;2023-08-21T14:19:20;2.67;;;1.20;;
12968;SDS011;6549;53.128;8.182;2023-08-21T14:22:20;2.40;;;1.10;;
12968;SDS011;6549;53.128;8.182;2023-08-21T14:25:20;2.20;;;1.10;;
12968;SDS011;6549;53.128;8.182;2023-08-21T14:28:21;3.00;;;1.33;;
12968;SDS011;6549;53.128;8.182;2023-08-21T14:31:21;3.00;;;0.93;;
12968;SDS011;6549;53.128;8.182;2023-08-21T14:34:21;1.40;;;0.93;;
12968;SDS011;6549;53.128;8.182;2023-08-21T14:37:22;3.40;;;1.23;;
12968;SDS011;6549;53.128;8.182;2023-08-21T14:40:23;2.40;;;1.30;;
12968;SDS011;6549;53.128;8.182;2023-08-21T14:43:24;2.67;;;0.90;;
12968;SDS011;6549;53.128;8.182;2023-08-21T14:46:24;1.47;;;0.93;;
12968;SDS011;6549;53.128;8.182;2023-08-21T14:49:24;2.80;;;1.10;;
12968;SDS011;6549;53.128;8.182;2023-08-21T14:52:25;2.43;;;1.00;;
12968;SDS011;6549;53.128;8.182;2023-08-21T14:55:26;5.27;;;1.23;;
12968;SDS011;6549;53.128;8.182;2023-08-21T14:58:26;3.30;;;1.03;;
12968;SDS011;6549;53.128;8.182;2023-08-21T15:01:26;1.97;;;1.07;;
12968;SDS011;6549;53.128;8.182;2023-08-21T15:04:27;1.53;;;0.80;;
12968;SDS011;6549;53.128;8.182;2023-08-21T15:07:27;1.88;;;1.00;;
12968;SDS011;6549;53.128;8.182;2023-08-21T15:10:28;2.97;;;0.90;;
12968;SDS011;6549;53.128;8.182;2023-08-21T15:13:28;3.60;;;1.17;;
12968;SDS011;6549;53.128;8.182;2023-08-21T15:16:28;3.93;;;1.00;;
12968;SDS011;6549;53.128;8.182;2023-08-21T15:19:29;2.80;;;1.10;;
12968;SDS011;6549;53.128;8.182;2023-08-21T15:22:29;2.40;;;1.10;;
12968;SDS011;6549;53.128;8.182;2023-08-21T15:25:29;3.20;;;1.07;;
12968;SDS011;6549;53.128;8.182;2023-08-21T15:28:29;1.83;;;1.10;;
12968;SDS011;6549;53.128;8.182;2023-08-21T15:31:30;1.27;;;0.80;;
12968;SDS011;6549;53.128;8.182;2023-08-21T15:34:30;1.03;;;0.77;;
12968;SDS011;6549;53.128;8.182;2023-08-21T15:37:31;1.13;;;0.90;;
12968;SDS011;6549;53.128;8.182;2023-08-21T15:40:31;1.50;;;0.97;;
12968;SDS011;6549;53.128;8.182;2023-08-21T15:43:32;3.93;;;1.20;;
12968;SDS011;6549;53.128;8.182;2023-08-21T15:46:32;1.63;;;0.80;;
12968;SDS011;6549;53.128;8.182;2023-08-21T15:49:33;2.28;;;1.00;;
12968;SDS011;6549;53.128;8.182;2023-08-21T15:52:33;4.27;;;1.00;;
12968;SDS011;6549;53.128;8.182;2023-08-21T15:55:34;1.90;;;0.83;;
12968;SDS011;6549;53.128;8.182;2023-08-21T15:58:34;2.13;;;0.90;;
12968;SDS011;6549;53.128;8.182;2023-08-21T16:01:34;3.50;;;1.10;;
12968;SDS011;6549;53.128;8.182;2023-08-21T16:04:35;3.33;;;1.10;;
12968;SDS011;6549;53.128;8.182;2023-08-21T16:07:35;3.25;;;1.10;;
12968;SDS011;6549;53.128;8.182;2023-08-21T16:10:35;1.75;;;0.80;;
12968;SDS011;6549;53.128;8.182;2023-08-21T16:13:37;1.83;;;0.90;;
12968;SDS011;6549;53.128;8.182;2023-08-21T16:16:37;2.50;;;1.00;;
12968;SDS011;6549;53.128;8.182;2023-08-21T16:19:38;1.67;;;1.00;;
12968;SDS011;6549;53.128;8.182;2023-08-21T16:22:38;1.98;;;1.20;;
12968;SDS011;6549;53.128;8.182;2023-08-21T16:25:39;2.77;;;1.10;;
12968;SDS011;6549;53.128;8.182;2023-08-21T16:28:39;2.97;;;1.07;;
12968;SDS011;6549;53.128;8.182;2023-08-21T16:31:39;4.57;;;1.15;;
12968;SDS011;6549;53.128;8.182;2023-08-21T16:34:40;3.58;;;1.30;;
12968;SDS011;6549;53.128;8.182;2023-08-21T16:37:40;3.45;;;1.30;;
12968;SDS011;6549;53.128;8.182;2023-08-21T16:40:41;7.72;;;2.10;;
12968;SDS011;6549;53.128;8.182;2023-08-21T16:43:42;5.50;;;2.40;;
12968;SDS011;6549;53.128;8.182;2023-08-21T16:46:42;3.37;;;1.70;;
12968;SDS011;6549;53.128;8.182;2023-08-21T16:49:42;2.55;;;1.17;;
12968;SDS011;6549;53.128;8.182;2023-08-21T16:52:43;1.10;;;1.00;;
12968;SDS011;6549;53.128;8.182;2023-08-21T16:55:43;2.67;;;0.90;;
12968;SDS011;6549;53.128;8.182;2023-08-21T16:58:43;1.53;;;0.93;;
12968;SDS011;6549;53.128;8.182;2023-08-21T17:01:44;1.50;;;0.90;;
12968;SDS011;6549;53.128;8.182;2023-08-21T17:16:46;0.55;;;0.55;;
12968;SDS011;6549;53.128;8.182;2023-08-21T17:19:46;1.77;;;1.10;;
12968;SDS011;6549;53.128;8.182;2023-08-21T17:22:47;1.98;;;1.15;;
12968;SDS011;6549;53.128;8.182;2023-08-21T17:25:47;1.48;;;0.88;;
12968;SDS011;6549;53.128;8.182;2023-08-21T17:28:48;3.10;;;1.30;;
12968;SDS011;6549;53.128;8.182;2023-08-21T17:31:49;3.28;;;1.08;;
12968;SDS011;6549;53.128;8.182;2023-08-21T17:34:49;1.52;;;0.80;;
12968;SDS011;6549;53.128;8.182;2023-08-21T17:37:50;1.13;;;0.75;;
12968;SDS011;6549;53.128;8.182;2023-08-21T17:40:50;2.47;;;1.10;;
12968;SDS011;6549;53.128;8.182;2023-08-21T17:43:50;1.27;;;0.80;;
12968;SDS011;6549;53.128;8.182;2023-08-21T17:46:51;2.50;;;0.85;;
12968;SDS011;6549;53.128;8.182;2023-08-21T17:49:51;0.95;;;0.80;;
12968;SDS011;6549;53.128;8.182;2023-08-21T17:52:51;1.98;;;0.93;;
12968;SDS011;6549;53.128;8.182;2023-08-21T17:55:52;0.88;;;0.70;;
12968;SDS011;6549;53.128;8.182;2023-08-21T17:58:52;1.90;;;1.08;;
12968;SDS011;6549;53.128;8.182;2023-08-21T18:01:52;3.07;;;1.20;;
12968;SDS011;6549;53.128;8.182;2023-08-21T18:04:54;1.20;;;1.00;;
12968;SDS011;6549;53.128;8.182;2023-08-21T18:07:55;0.80;;;0.80;;
12968;SDS011;6549;53.128;8.182;2023-08-21T18:10:55;1.80;;;0.98;;
12968;SDS011;6549;53.128;8.182;2023-08-21T18:13:56;1.83;;;1.30;;
12968;SDS011;6549;53.128;8.182;2023-08-21T18:17:00;1.60;;;1.10;;
12968;SDS011;6549;53.128;8.182;2023-08-21T18:20:09;1.00;;;0.85;;
12968;SDS011;6549;53.128;8.182;2023-08-21T18:23:09;1.27;;;0.90;;
12968;SDS011;6549;53.128;8.182;2023-08-21T18:26:10;1.17;;;0.88;;
12968;SDS011;6549;53.128;8.182;2023-08-21T18:29:10;1.00;;;0.82;;
12968;SDS011;6549;53.128;8.182;2023-08-21T18:32:10;1.92;;;1.00;;
12968;SDS011;6549;53.128;8.182;2023-08-21T18:35:11;1.88;;;1.10;;
12968;SDS011;6549;53.128;8.182;2023-08-21T18:38:11;1.48;;;1.00;;
12968;SDS011;6549;53.128;8.182;2023-08-21T18:41:12;1.27;;;0.98;;
12968;SDS011;6549;53.128;8.182;2023-08-21T18:44:12;1.23;;;0.85;;
12968;SDS011;6549;53.128;8.182;2023-08-21T18:47:12;0.85;;;0.85;;